Hibbing, Minnesota
Current Conditions -  °F | °C
As of 2:38 AM on Friday 24 Oct 2014 (Local Time) from KHIB Reporting Station
Moderate Fog Moderate Fog  
Wind Chill: 37°   Ceiling: 100
Heat Index: 37°   Visibility: 0.25mi
Dew Point: 35°   Wind: 0mph
Humidity: 93%   Direction: NA
Pressure: 29.88"   Gusts: NA
Location:  47.42°N, 92.94°W
Report Text: KHIB 240738Z AUTO 00000KT 1/4SM FG VV001 03/02 A2988 RMK AO2 T00280017
Loading
Personal Weather Stations






























Interactive Weather Map
Tropical Storm Tracking
New forecast layout! Learn more

10-Day Weather Forecast

Advertisements
Track Severe Weather on mobile